RÉSULTATS    Trail Urbain de Blois - Édition du 03/09/2017


Vous pouvez changer la distance ici.

Vous pouvez changer la distance ici.

Classement PDF Général Classement PDF Alphabétique /results/<span class='glyphicon glyphicon-picture'></span> Classement Temps Réel - Temps Puce

178 participants - 90 Hommes - 88 Femmes
9 licenciés (5%) - 169 non-licenciés (95%)

Temps moyen : 00:42:53




Pos. Temps Nom - Prénom Club Dossard Catégorie km/h
76 00:41:24 ARNOULT Veronique AS POLICE BLOIS 32 SEF (11 / 36) 9.4
77 00:41:28 LABLEE Marlene 43 SEF (12 / 36) 9.4
78 00:41:41 DALIBARD Maud AQUAVITHAL 96 SEF (13 / 36) 9.3
79 00:41:50 FITAMANT Jean luc 115 V2M (6 / 12) 9.3
80 00:41:52 SERAIN Sandrine COURTOUTOU41 92 SEF (14 / 36) 9.3
81 00:41:55 BASTIE Marie 113 ESF (1 / 3) 9.3
82 00:41:55 CURIEL Valentin 114 ESM (6 / 7) 9.3
83 00:41:59 DESBOURDIER Valentin 93 SEM (25 / 38) 9.2
84 00:42:03 PAWLOWSKI Frederic 139 SEM (26 / 38) 9.2
85 00:42:03 BRUNET Julie 155 SEF (15 / 36) 9.2
86 00:42:11 LELOUR Celine 156 V1F (7 / 36) 9.2
87 00:42:16 GUELLIER Jean yves COURIR EN VAL DE CISSE 190 V3M (3 / 3) 9.2
88 00:42:16 VAUTHIER Alban 8 SEM (27 / 38) 9.2
89 00:42:22 CHARBONNEAU Julien 85 SEM (28 / 38) 9.2
90 00:42:36 LEROUX Lucie 123 SEF (16 / 36) 9.1
91 00:42:37 MORIN-SANTE Olivier 111 V1M (15 / 23) 9.1
92 00:42:50 RICHARD Didier 129 V1M (16 / 23) 9.1
93 00:42:57 PASSOT Claire 150 SEF (17 / 36) 9.0
94 00:42:59 SALINGUE Veronique AJBO 179 V1F (8 / 36) 9.0
95 00:43:04 GANDIOL Xavier 7 V2M (7 / 12) 9.0
96 00:43:14 VERGEON Vincent 75 V2M (8 / 12) 9.0
97 00:43:14 VERGEON Alexandra 76 V1F (9 / 36) 9.0
98 00:43:14 CHASSIER Benoit 4 T ONE 41 79 V1M (17 / 23) 9.0
99 00:43:15 SIMONNEAU Adrien COURIR A SAINT GERVAIS 142 SEM (29 / 38) 9.0
100 00:43:39 PIAT Jeremy 59 V1M (18 / 23) 8.9